Time;durP1;ratioP1;P1;durP2;ratioP2;P2;SDS_P1;SDS_P2;PMS_P1;PMS_P2;Temp;Humidity;BMP_temperature;BMP_pressure;BME280_temperature;BME280_humidity;BME280_pressure;Samples;Min_cycle;Max_cycle;Signal;HPM_P1;HPM_P2
2022/01/14 00:01:06;;;;;;;0.20;0.20;;;;;;;7.25;71.08;103893.13;5042775;28;20028;-84
2022/01/14 00:03:32;;;;;;;0.20;0.20;;;;;;;7.08;71.60;103890.69;5044272;28;20194;-84
2022/01/14 00:05:58;;;;;;;0.10;0.10;;;;;;;7.22;71.50;103887.75;5038194;28;20041;-85
2022/01/14 00:08:24;;;;;;;0.20;0.20;;;;;;;7.24;70.76;103876.41;5044700;28;20045;-84
2022/01/14 00:10:51;;;;;;;0.30;0.30;;;;;;;7.18;71.15;103870.88;5042425;28;20037;-84
2022/01/14 00:16:04;;;;;;;0.60;0.60;;;;;;;7.23;70.89;103871.09;5045511;28;20041;-85
2022/01/14 00:18:31;;;;;;;0.10;0.10;;;;;;;7.20;71.08;103870.94;5039784;28;20108;-83
2022/01/14 00:20:59;;;;;;;0.10;0.10;;;;;;;7.20;71.27;103869.22;5042075;28;20029;-84
2022/01/14 00:23:31;;;;;;;1.33;1.23;;;;;;;7.13;71.35;103861.88;5042295;28;20353;-84
2022/01/14 00:32:08;;;;;;;0.10;0.10;;;;;;;7.18;71.30;103847.16;5041821;28;20049;-84
2022/01/14 00:34:17;;;;;;;0.10;0.10;;;;;;;7.28;71.14;103840.53;5045069;28;20037;-84
2022/01/14 00:36:44;;;;;;;0.10;0.10;;;;;;;7.28;71.08;103836.13;5045967;28;20037;-84
2022/01/14 00:39:12;;;;;;;0.43;0.43;;;;;;;7.27;70.85;103834.34;5043956;28;20037;-84
2022/01/14 00:41:39;;;;;;;0.10;0.10;;;;;;;7.28;71.04;103825.59;5041822;28;20033;-84
2022/01/14 00:44:11;;;;;;;0.93;0.93;;;;;;;7.26;71.07;103821.09;5044297;28;20377;-84
2022/01/14 00:46:41;;;;;;;1.55;1.55;;;;;;;7.20;71.11;103821.75;5040675;28;20041;-84
2022/01/14 00:49:13;;;;;;;0.22;0.22;;;;;;;7.26;71.16;103827.28;5042840;28;20024;-84
2022/01/14 00:51:40;;;;;;;0.15;0.15;;;;;;;7.11;71.45;103816.06;5037990;28;20480;-84
2022/01/14 00:54:08;;;;;;;0.10;0.10;;;;;;;7.16;71.39;103824.19;5040781;28;20036;-84
2022/01/14 00:59:25;;;;;;;0.57;0.57;;;;;;;7.07;71.31;103825.59;5057407;28;20418;-83
2022/01/14 01:01:53;;;;;;;0.10;0.10;;;;;;;7.16;71.10;103818.91;5038482;28;20084;-83
2022/01/14 01:04:28;;;;;;;0.13;0.13;;;;;;;7.05;71.68;103819.38;5039618;28;20057;-84
2022/01/14 01:06:54;;;;;;;0.20;0.20;;;;;;;7.06;71.49;103818.50;5040534;28;20034;-84
2022/01/14 01:09:23;;;;;;;0.75;0.75;;;;;;;7.02;71.11;103821.84;5039124;28;20037;-84
2022/01/14 01:11:54;;;;;;;0.20;0.20;;;;;;;6.93;71.29;103824.13;5039359;28;20104;-84
2022/01/14 01:14:27;;;;;;;0.15;0.15;;;;;;;6.96;71.01;103808.41;5038037;28;20029;-83
2022/01/14 01:16:54;;;;;;;0.10;0.10;;;;;;;6.90;71.44;103821.31;5035860;28;20079;-83
2022/01/14 01:19:20;;;;;;;0.30;0.30;;;;;;;6.89;71.66;103814.25;5036729;28;20476;-83
2022/01/14 01:21:46;;;;;;;0.10;0.10;;;;;;;6.91;71.52;103813.47;5038205;28;20064;-83
2022/01/14 01:24:14;;;;;;;0.00;0.00;;;;;;;6.91;71.33;103812.59;5037919;28;20408;-83
2022/01/14 01:26:42;;;;;;;0.38;0.38;;;;;;;6.89;71.41;103817.81;5041223;28;20476;-84
2022/01/14 01:31:55;;;;;;;0.93;0.93;;;;;;;6.90;71.36;103806.44;5081633;27;20411;-83
2022/01/14 01:34:24;;;;;;;0.25;0.25;;;;;;;6.96;71.11;103803.13;5067284;28;20047;-83
2022/01/14 01:36:53;;;;;;;0.40;0.40;;;;;;;6.90;71.26;103794.97;5070236;28;20025;-83
2022/01/14 01:39:23;;;;;;;1.60;1.23;;;;;;;6.93;70.96;103803.03;5067603;28;20025;-83
2022/01/14 01:41:53;;;;;;;0.22;0.22;;;;;;;6.89;71.07;103794.09;5058860;28;20029;-84
2022/01/14 01:44:22;;;;;;;0.22;0.22;;;;;;;6.91;71.01;103786.22;5057783;28;20132;-84
2022/01/14 01:46:52;;;;;;;0.13;0.13;;;;;;;6.92;71.03;103781.03;5058937;28;20506;-84
2022/01/14 01:49:31;;;;;;;0.25;0.25;;;;;;;6.94;70.72;103796.88;5058882;28;20029;-84
2022/01/14 01:51:59;;;;;;;1.42;1.35;;;;;;;6.89;71.15;103803.72;5055280;28;20123;-83
2022/01/14 01:54:27;;;;;;;0.10;0.10;;;;;;;6.88;70.72;103796.63;5052005;28;20029;-84
2022/01/14 01:56:54;;;;;;;0.10;0.10;;;;;;;6.87;70.96;103800.13;5059048;28;20047;-84
2022/01/14 01:59:22;;;;;;;0.35;0.35;;;;;;;6.83;70.93;103803.44;5057171;28;20039;-83
2022/01/14 02:01:49;;;;;;;0.10;0.10;;;;;;;6.91;70.97;103807.31;5056462;28;20046;-83
2022/01/14 02:04:16;;;;;;;0.35;0.25;;;;;;;6.92;71.22;103803.84;5057794;28;20039;-83
2022/01/14 02:06:42;;;;;;;0.20;0.20;;;;;;;6.89;71.15;103803.72;5058717;28;20029;-84
2022/01/14 02:09:10;;;;;;;0.10;0.10;;;;;;;6.91;70.66;103795.03;5058835;28;20029;-84
2022/01/14 02:11:36;;;;;;;0.20;0.20;;;;;;;6.92;70.68;103799.47;5055180;28;20388;-84
2022/01/14 02:14:12;;;;;;;1.20;1.20;;;;;;;6.86;71.12;103799.22;5056596;28;20033;-83
2022/01/14 02:17:12;;;;;;;0.45;0.45;;;;;;;6.87;71.14;103794.84;5054718;28;20041;-83
2022/01/14 02:19:28;;;;;;;1.60;1.55;;;;;;;6.91;70.91;103794.13;5056636;28;20033;-83
2022/01/14 02:25:03;;;;;;;0.20;0.20;;;;;;;6.86;70.94;103795.69;5064030;28;20463;-83
2022/01/14 02:27:30;;;;;;;0.10;0.10;;;;;;;6.81;71.13;103800.75;5059790;28;20026;-83
2022/01/14 02:29:56;;;;;;;0.20;0.20;;;;;;;6.74;70.74;103799.59;5057097;28;20029;-84
2022/01/14 02:32:22;;;;;;;0.10;0.10;;;;;;;6.74;71.13;103796.97;5041965;28;20092;-83
2022/01/14 02:34:49;;;;;;;0.10;0.10;;;;;;;6.70;70.78;103797.63;5037569;28;20608;-83
2022/01/14 02:37:19;;;;;;;0.63;0.63;;;;;;;6.73;70.84;103803.06;5035942;28;20026;-83
2022/01/14 02:39:46;;;;;;;0.90;0.90;;;;;;;6.71;70.81;103794.19;5046301;28;20036;-83
2022/01/14 02:42:13;;;;;;;0.25;0.25;;;;;;;6.70;70.98;103792.38;5043087;28;20029;-83
2022/01/14 02:44:39;;;;;;;1.05;1.05;;;;;;;6.70;70.86;103797.63;5034584;28;20056;-83
2022/01/14 02:47:07;;;;;;;0.10;0.10;;;;;;;6.76;70.99;103805.81;5034176;28;20033;-83
2022/01/14 02:49:37;;;;;;;0.20;0.20;;;;;;;6.71;71.13;103799.44;5038313;28;20036;-82
2022/01/14 02:52:09;;;;;;;0.70;0.70;;;;;;;6.73;71.08;103796.88;5043294;28;20030;-84
2022/01/14 02:54:52;;;;;;;;;;;;;;;6.74;70.98;103789.06;5043105;28;20120;-84
2022/01/14 02:57:19;;;;;;;0.28;0.28;;;;;;;6.61;71.39;103799.88;5036441;28;19960;-83
2022/01/14 02:59:47;;;;;;;0.10;0.10;;;;;;;6.63;71.22;103792.97;5041345;28;20076;-83
2022/01/14 03:02:14;;;;;;;0.38;0.38;;;;;;;6.70;70.76;103805.53;5042182;28;20108;-83
2022/01/14 03:04:42;;;;;;;0.85;0.85;;;;;;;6.71;71.23;103809.97;5036027;28;20044;-83
2022/01/14 03:07:10;;;;;;;0.20;0.20;;;;;;;6.72;70.95;103814.44;5037582;28;20504;-84
2022/01/14 03:09:39;;;;;;;0.10;0.10;;;;;;;6.70;71.16;103808.19;5034437;28;20025;-84
2022/01/14 03:12:09;;;;;;;0.15;0.15;;;;;;;6.74;71.01;103810.13;5041134;28;20064;-84
2022/01/14 03:14:35;;;;;;;0.10;0.10;;;;;;;6.72;71.13;103814.44;5043613;28;20151;-84
2022/01/14 03:17:03;;;;;;;0.10;0.10;;;;;;;6.74;70.76;103811.84;5041059;28;20109;-83
2022/01/14 03:19:31;;;;;;;0.73;0.73;;;;;;;6.74;71.04;103804.88;5040105;28;20040;-83
2022/01/14 03:22:20;;;;;;;0.55;0.55;;;;;;;6.72;71.22;103805.63;5041128;28;20362;-83
2022/01/14 03:27:29;;;;;;;0.30;0.30;;;;;;;6.66;71.09;103795.72;5082884;27;20418;-84
2022/01/14 03:30:03;;;;;;;0.20;0.20;;;;;;;6.69;71.00;103793.22;5065563;28;20033;-83
2022/01/14 03:32:42;;;;;;;0.20;0.20;;;;;;;6.60;71.23;103791.09;5057504;28;20076;-84
2022/01/14 03:35:16;;;;;;;4.70;1.38;;;;;;;6.57;70.92;103798.84;5063624;28;20044;-85
2022/01/14 03:37:44;;;;;;;3.50;1.55;;;;;;;6.58;71.06;103792.75;5059153;28;20112;-84
2022/01/14 03:40:17;;;;;;;0.35;0.35;;;;;;;6.54;71.36;103788.19;5055119;28;20029;-84
2022/01/14 03:42:43;;;;;;;0.10;0.10;;;;;;;6.46;71.06;103786.94;5056268;28;20033;-84
2022/01/14 03:45:10;;;;;;;0.30;0.30;;;;;;;6.43;71.50;103785.06;5057688;28;20025;-84
2022/01/14 03:47:37;;;;;;;0.30;0.30;;;;;;;6.51;71.00;103787.16;5058017;28;20052;-84
2022/01/14 03:50:04;;;;;;;0.20;0.20;;;;;;;6.40;71.39;103782.28;5055645;28;20036;-84
2022/01/14 03:52:31;;;;;;;0.10;0.10;;;;;;;6.47;71.01;103772.94;5057173;28;20422;-85
2022/01/14 03:54:58;;;;;;;0.52;0.52;;;;;;;6.46;71.11;103779.91;5060650;28;20400;-83
2022/01/14 03:57:24;;;;;;;0.20;0.20;;;;;;;6.40;71.04;103782.28;5059540;28;20033;-84
2022/01/14 03:59:50;;;;;;;0.55;0.55;;;;;;;6.39;70.96;103779.59;5065352;28;20464;-84
2022/01/14 04:02:16;;;;;;;0.15;0.15;;;;;;;6.44;70.98;103771.06;5051018;28;20076;-84
2022/01/14 04:04:42;;;;;;;0.10;0.10;;;;;;;6.41;70.94;103770.91;5055519;28;20147;-85
2022/01/14 04:07:08;;;;;;;0.20;0.20;;;;;;;6.36;70.85;103769.81;5056861;28;20102;-84
2022/01/14 04:09:37;;;;;;;0.10;0.10;;;;;;;6.41;70.93;103756.84;5058950;28;20029;-84
2022/01/14 04:12:06;;;;;;;0.10;0.10;;;;;;;6.42;70.67;103756.91;5057049;28;20017;-84
2022/01/14 04:17:20;;;;;;;0.10;0.10;;;;;;;6.37;70.53;103750.56;5080415;28;20594;-83
2022/01/14 04:19:46;;;;;;;0.20;0.20;;;;;;;6.36;70.49;103754.00;5058695;28;20026;-84
2022/01/14 04:22:13;;;;;;;0.20;0.20;;;;;;;6.34;70.88;103766.19;5041887;28;20030;-83
2022/01/14 04:24:39;;;;;;;0.20;0.20;;;;;;;6.27;70.97;103764.16;5041583;28;20029;-84
2022/01/14 04:27:05;;;;;;;0.10;0.10;;;;;;;6.32;70.84;103767.88;5041824;28;20039;-84
2022/01/14 04:29:32;;;;;;;0.73;0.73;;;;;;;6.30;70.86;103759.88;5042952;28;20033;-83
2022/01/14 04:31:59;;;;;;;0.20;0.20;;;;;;;6.30;70.75;103745.84;5044172;28;20017;-83
2022/01/14 04:34:25;;;;;;;0.40;0.40;;;;;;;6.27;71.12;103740.44;5042233;28;20044;-83
2022/01/14 04:36:51;;;;;;;0.28;0.28;;;;;;;6.29;70.71;103738.75;5042595;28;20036;-83
2022/01/14 04:39:17;;;;;;;0.20;0.20;;;;;;;6.22;70.75;103740.25;5043300;28;20030;-84
2022/01/14 04:41:44;;;;;;;0.10;0.10;;;;;;;6.25;70.92;103737.72;5043496;28;20029;-83
2022/01/14 04:44:10;;;;;;;0.43;0.43;;;;;;;6.25;70.78;103728.94;5042574;28;20030;-83
2022/01/14 04:46:59;;;;;;;0.43;0.43;;;;;;;6.22;70.62;103723.53;5042922;28;20040;-83
2022/01/14 04:49:22;;;;;;;1.67;1.58;;;;;;;6.20;70.81;103726.09;5043696;28;20117;-82
2022/01/14 04:51:48;;;;;;;0.10;0.10;;;;;;;6.23;70.77;103717.44;5042898;28;20519;-84
2022/01/14 04:54:15;;;;;;;0.25;0.25;;;;;;;6.18;70.80;103724.22;5033659;28;20022;-84
2022/01/14 04:56:41;;;;;;;0.20;0.20;;;;;;;6.18;70.65;103711.97;5037797;28;20037;-84
2022/01/14 04:59:08;;;;;;;0.30;0.30;;;;;;;6.19;70.58;103715.50;5042287;28;20033;-85
2022/01/14 05:01:34;;;;;;;0.10;0.10;;;;;;;6.10;70.83;103719.50;5040152;28;20025;-84
2022/01/14 05:04:00;;;;;;;0.10;0.10;;;;;;;6.07;70.79;103716.75;5036373;28;20113;-85
2022/01/14 05:06:28;;;;;;;0.10;0.10;;;;;;;6.02;70.96;103709.47;5037165;28;20034;-85
2022/01/14 05:08:55;;;;;;;0.10;0.10;;;;;;;5.98;70.97;103714.63;5042777;28;20033;-84
2022/01/14 05:11:29;;;;;;;0.15;0.15;;;;;;;5.89;71.24;103711.50;5047221;28;20026;-84
2022/01/14 05:13:55;;;;;;;0.10;0.10;;;;;;;5.83;71.35;103699.00;5037755;28;20435;-83
2022/01/14 05:16:21;;;;;;;0.30;0.30;;;;;;;5.86;71.38;103702.56;5040351;28;20052;-83
2022/01/14 05:18:48;;;;;;;0.30;0.30;;;;;;;5.90;71.39;103699.28;5040899;28;20436;-84
2022/01/14 05:21:14;;;;;;;0.10;0.10;;;;;;;5.91;71.47;103696.69;5040137;28;20025;-83
2022/01/14 05:23:42;;;;;;;0.10;0.10;;;;;;;5.88;71.40;103691.31;5043242;28;20025;-84
2022/01/14 05:26:08;;;;;;;0.30;0.30;;;;;;;5.96;71.09;103689.03;5044779;28;20029;-84
2022/01/14 05:28:35;;;;;;;0.20;0.20;;;;;;;6.00;71.19;103680.47;5023245;28;20037;-83
2022/01/14 05:31:01;;;;;;;0.20;0.20;;;;;;;5.98;71.06;103688.28;5026919;28;20022;-84
2022/01/14 05:33:27;;;;;;;0.20;0.20;;;;;;;6.05;71.03;103684.19;5023933;28;20060;-83
2022/01/14 05:35:54;;;;;;;0.20;0.20;;;;;;;6.01;71.08;103678.72;5023822;28;20034;-84
2022/01/14 05:38:20;;;;;;;0.22;0.22;;;;;;;6.03;71.20;103683.25;5024536;28;20076;-84
2022/01/14 05:40:46;;;;;;;0.20;0.20;;;;;;;5.97;71.23;103690.81;5032776;28;20030;-84
2022/01/14 05:43:12;;;;;;;0.10;0.10;;;;;;;5.95;71.09;103692.47;5029869;28;20155;-84
2022/01/14 05:45:38;;;;;;;0.10;0.10;;;;;;;5.99;71.04;103707.59;5044530;28;20103;-84
2022/01/14 05:48:06;;;;;;;0.10;0.10;;;;;;;6.01;71.18;103697.13;5026296;28;20030;-85
2022/01/14 05:50:37;;;;;;;0.20;0.20;;;;;;;5.98;71.13;103704.09;5027061;28;20087;-85
2022/01/14 05:53:06;;;;;;;0.20;0.20;;;;;;;6.02;71.07;103697.22;5024334;28;20539;-84
2022/01/14 05:55:33;;;;;;;0.80;0.80;;;;;;;6.06;71.32;103695.63;5022415;28;20098;-84
2022/01/14 05:57:59;;;;;;;0.20;0.20;;;;;;;6.12;71.20;103696.81;5027214;28;20083;-84
2022/01/14 06:00:25;;;;;;;0.10;0.10;;;;;;;6.13;71.04;103693.34;5027194;28;20037;-84
2022/01/14 06:02:52;;;;;;;0.52;0.52;;;;;;;6.10;70.93;103698.44;5024992;28;20556;-84
2022/01/14 06:05:20;;;;;;;0.22;0.22;;;;;;;6.00;71.29;103701.50;5025847;28;20033;-83
2022/01/14 06:07:46;;;;;;;0.10;0.10;;;;;;;6.05;71.18;103699.97;5032083;28;20548;-84
2022/01/14 06:10:12;;;;;;;0.10;0.10;;;;;;;6.08;71.10;103693.94;5024823;28;20041;-84
2022/01/14 06:12:38;;;;;;;0.10;0.10;;;;;;;6.13;71.14;103708.22;5024521;28;20045;-84
2022/01/14 06:15:05;;;;;;;0.10;0.10;;;;;;;6.05;71.23;103709.63;5027397;28;20034;-84
2022/01/14 06:17:31;;;;;;;0.10;0.10;;;;;;;6.05;71.22;103705.25;5025897;28;20476;-84
2022/01/14 06:19:58;;;;;;;0.15;0.15;;;;;;;6.05;71.18;103707.00;5026624;28;20472;-83
2022/01/14 06:22:24;;;;;;;1.08;0.80;;;;;;;6.09;71.10;103687.84;5027020;28;20033;-84
2022/01/14 06:24:50;;;;;;;0.10;0.10;;;;;;;6.09;70.98;103683.53;5024657;28;20073;-83
2022/01/14 06:27:17;;;;;;;0.20;0.20;;;;;;;6.13;71.23;103692.41;5021521;28;20030;-84
2022/01/14 06:29:43;;;;;;;0.20;0.20;;;;;;;6.05;71.01;103688.56;5026001;28;20029;-84
2022/01/14 06:32:09;;;;;;;0.40;0.40;;;;;;;6.08;70.96;103684.34;5030952;28;20029;-84
2022/01/14 06:34:35;;;;;;;0.10;0.10;;;;;;;6.07;71.11;103687.81;5030687;28;20037;-84
2022/01/14 06:37:02;;;;;;;0.30;0.30;;;;;;;6.01;71.37;103690.16;5028254;28;20064;-84
2022/01/14 06:39:28;;;;;;;0.10;0.10;;;;;;;6.08;70.75;103700.13;5023379;28;20022;-84
2022/01/14 06:41:57;;;;;;;0.20;0.20;;;;;;;6.07;70.98;103703.59;5026915;28;20124;-83
2022/01/14 06:44:23;;;;;;;0.55;0.55;;;;;;;6.13;70.84;103718.75;5031118;28;20025;-83
2022/01/14 06:46:52;;;;;;;0.13;0.13;;;;;;;6.08;71.16;103718.56;5028578;28;20545;-84
2022/01/14 06:49:21;;;;;;;0.73;0.73;;;;;;;6.13;70.95;103709.13;5025836;28;20037;-84
2022/01/14 06:51:47;;;;;;;0.30;0.30;;;;;;;6.13;71.08;103708.22;5029128;28;20042;-84
2022/01/14 06:54:13;;;;;;;0.28;0.28;;;;;;;6.10;70.68;103714.25;5028936;28;20037;-84
2022/01/14 06:56:39;;;;;;;0.10;0.10;;;;;;;6.10;70.97;103708.97;5025261;28;20042;-84
2022/01/14 06:59:06;;;;;;;0.20;0.20;;;;;;;6.10;70.89;103716.00;5025685;28;20037;-84
2022/01/14 07:01:32;;;;;;;0.20;0.20;;;;;;;6.15;70.67;103727.63;5026865;28;20541;-84
2022/01/14 07:03:59;;;;;;;1.08;1.08;;;;;;;6.14;70.95;103728.44;5025282;28;20042;-84
2022/01/14 07:06:25;;;;;;;0.10;0.10;;;;;;;6.10;70.48;103730.03;5024078;28;20369;-84
2022/01/14 07:08:51;;;;;;;0.20;0.20;;;;;;;6.12;70.46;103723.13;5027976;28;20025;-85
2022/01/14 07:11:18;;;;;;;0.13;0.13;;;;;;;6.08;70.48;103715.94;5027689;28;20056;-84
2022/01/14 07:13:44;;;;;;;0.20;0.20;;;;;;;6.12;70.80;103723.13;5027085;28;20022;-85
2022/01/14 07:16:10;;;;;;;0.10;0.10;;;;;;;6.06;70.70;103714.06;5025840;28;20472;-85
2022/01/14 07:18:36;;;;;;;0.10;0.10;;;;;;;6.03;70.53;103717.47;5023118;28;20026;-86
2022/01/14 07:21:03;;;;;;;0.10;0.10;;;;;;;6.03;70.50;103721.81;5021104;28;20413;-83
2022/01/14 07:23:29;;;;;;;0.10;0.10;;;;;;;6.03;70.49;103727.06;5025984;28;20084;-85
2022/01/14 07:25:55;;;;;;;0.10;0.10;;;;;;;5.93;70.23;103723.06;5032310;28;20037;-85
2022/01/14 07:28:21;;;;;;;0.17;0.17;;;;;;;5.93;70.44;103729.25;5029871;28;20107;-85
2022/01/14 07:30:47;;;;;;;1.50;0.77;;;;;;;5.82;70.27;103717.34;5030944;28;20025;-85
2022/01/14 07:33:14;;;;;;;0.10;0.10;;;;;;;5.85;70.52;103735.00;5031537;28;20485;-83
2022/01/14 07:35:43;;;;;;;0.10;0.10;;;;;;;5.89;70.32;103729.94;5022134;28;20065;-84
2022/01/14 07:38:09;;;;;;;1.67;1.55;;;;;;;5.92;70.39;103739.69;5030961;28;20507;-85
2022/01/14 07:40:37;;;;;;;0.10;0.10;;;;;;;5.88;70.33;103719.34;5032539;28;20071;-83
2022/01/14 07:43:03;;;;;;;0.13;0.13;;;;;;;5.94;70.35;103743.31;5025023;28;20481;-83
2022/01/14 07:45:29;;;;;;;0.25;0.25;;;;;;;5.93;70.46;103731.91;5025709;28;20072;-83
2022/01/14 07:47:55;;;;;;;0.10;0.10;;;;;;;5.94;70.74;103732.78;5021717;28;20021;-83
2022/01/14 07:50:22;;;;;;;0.10;0.10;;;;;;;5.96;70.75;103736.41;5028000;28;20029;-83
2022/01/14 07:52:48;;;;;;;0.10;0.10;;;;;;;6.00;70.57;103733.09;5019452;28;20029;-84
2022/01/14 07:55:14;;;;;;;0.10;0.10;;;;;;;6.02;70.62;103731.44;5031399;28;20057;-83
2022/01/14 07:57:40;;;;;;;0.10;0.10;;;;;;;6.07;70.81;103729.91;5021645;28;20065;-84
2022/01/14 08:00:07;;;;;;;0.15;0.15;;;;;;;6.05;70.64;103726.31;5032272;28;20132;-83
2022/01/14 08:02:34;;;;;;;0.10;0.10;;;;;;;6.08;70.47;103742.25;5033278;28;20080;-83
2022/01/14 08:05:02;;;;;;;0.10;0.10;;;;;;;6.02;70.48;103739.34;5033165;28;20030;-83
2022/01/14 08:07:30;;;;;;;0.10;0.10;;;;;;;6.08;70.43;103746.59;5032759;28;20029;-82
2022/01/14 08:09:56;;;;;;;2.72;2.25;;;;;;;6.05;70.55;103751.75;5032991;28;20503;-83
2022/01/14 08:12:26;;;;;;;0.20;0.20;;;;;;;6.15;70.67;103744.31;5031704;28;20061;-82
2022/01/14 08:14:58;;;;;;;0.95;0.95;;;;;;;6.10;70.48;103740.56;5033009;28;20112;-82
2022/01/14 08:17:24;;;;;;;0.15;0.15;;;;;;;6.17;70.59;103741.78;5031771;28;20040;-83
2022/01/14 08:20:06;;;;;;;0.95;0.75;;;;;;;6.22;70.50;103731.41;5032874;28;20037;-84
2022/01/14 08:22:34;;;;;;;0.20;0.20;;;;;;;6.20;70.88;103731.34;5031134;28;20026;-84
2022/01/14 08:25:00;;;;;;;0.10;0.10;;;;;;;6.27;70.51;103745.72;5028881;28;20049;-82
2022/01/14 08:27:26;;;;;;;0.10;0.10;;;;;;;6.30;70.63;103740.56;5029805;28;20460;-84
2022/01/14 08:29:54;;;;;;;0.20;0.20;;;;;;;6.34;70.58;103741.63;5032553;28;20064;-84
2022/01/14 08:32:22;;;;;;;0.57;0.57;;;;;;;6.40;70.61;103745.41;5031742;28;20101;-84
2022/01/14 08:34:49;;;;;;;0.20;0.20;;;;;;;6.47;70.61;103752.75;5028173;28;20431;-83
2022/01/14 08:37:15;;;;;;;0.35;0.35;;;;;;;6.44;70.55;103747.38;5028525;28;20098;-84
2022/01/14 08:39:42;;;;;;;0.82;0.82;;;;;;;6.47;70.32;103747.47;5025543;28;20096;-84
2022/01/14 08:42:10;;;;;;;0.10;0.10;;;;;;;6.51;70.66;103753.78;5025876;28;20043;-84
2022/01/14 08:44:37;;;;;;;0.32;0.32;;;;;;;6.47;70.46;103752.75;5031806;28;20068;-84
2022/01/14 08:47:05;;;;;;;0.73;0.73;;;;;;;6.52;70.55;103749.41;5030648;28;20040;-84
2022/01/14 08:49:33;;;;;;;0.10;0.10;;;;;;;6.51;70.59;103748.53;5030270;28;20599;-82
2022/01/14 08:51:59;;;;;;;0.43;0.43;;;;;;;6.54;70.27;103745.13;5027417;28;20032;-82
2022/01/14 08:54:25;;;;;;;0.13;0.13;;;;;;;6.59;70.54;103740.94;5031549;28;20032;-83
2022/01/14 08:56:51;;;;;;;3.30;1.25;;;;;;;6.62;70.52;103726.16;5027056;28;20524;-83
2022/01/14 08:59:21;;;;;;;0.47;0.47;;;;;;;6.67;70.56;103723.75;5024590;28;20534;-82
2022/01/14 09:01:47;;;;;;;0.10;0.10;;;;;;;6.66;70.44;103724.56;5023819;28;20026;-83
2022/01/14 09:04:14;;;;;;;0.10;0.10;;;;;;;6.66;70.06;103737.75;5041826;28;20034;-84
2022/01/14 09:06:40;;;;;;;0.57;0.57;;;;;;;6.72;70.32;103726.59;5024168;28;20032;-83
2022/01/14 09:09:06;;;;;;;0.20;0.20;;;;;;;6.70;70.30;103728.25;5028448;28;20056;-82
2022/01/14 09:11:33;;;;;;;0.17;0.17;;;;;;;6.74;70.33;103725.81;5021122;28;20048;-84
2022/01/14 09:14:00;;;;;;;0.40;0.40;;;;;;;6.73;70.42;103731.91;5031180;28;20136;-84
2022/01/14 09:16:26;;;;;;;0.30;0.30;;;;;;;6.79;70.63;103725.97;5019269;28;20045;-81
2022/01/14 09:18:52;;;;;;;0.38;0.38;;;;;;;6.76;70.61;103733.78;5021596;28;20416;-84
2022/01/14 09:21:19;;;;;;;1.77;1.65;;;;;;;6.81;70.64;103737.50;5039579;28;20560;-80
2022/01/14 09:24:03;;;;;;;0.80;0.80;;;;;;;6.86;70.47;103732.44;5034558;28;20040;-82
2022/01/14 09:26:32;;;;;;;0.57;0.57;;;;;;;6.91;70.49;103734.41;5035154;28;20045;-82
2022/01/14 09:28:58;;;;;;;0.55;0.55;;;;;;;6.96;70.35;103746.03;5034981;28;20340;-82
2022/01/14 09:31:24;;;;;;;0.20;0.20;;;;;;;7.01;70.34;103735.69;5034646;28;20026;-82
2022/01/14 09:33:51;;;;;;;0.20;0.20;;;;;;;7.09;70.49;103746.53;5034904;28;20032;-82
2022/01/14 09:36:17;;;;;;;0.30;0.30;;;;;;;7.16;70.12;103750.34;5034533;28;20033;-82
2022/01/14 09:38:43;;;;;;;0.20;0.20;;;;;;;7.20;70.24;103741.72;5027078;28;20033;-81
2022/01/14 09:41:09;;;;;;;0.30;0.30;;;;;;;7.15;69.86;103741.53;5033436;28;20045;-81
2022/01/14 09:43:38;;;;;;;0.10;0.10;;;;;;;7.24;70.34;103734.00;5025303;28;20044;-81
2022/01/14 09:46:08;;;;;;;0.10;0.10;;;;;;;7.32;70.21;103747.50;5022229;28;20044;-81
2022/01/14 09:48:35;;;;;;;0.10;0.10;;;;;;;7.35;70.31;103731.81;5025870;28;20041;-81
2022/01/14 09:51:02;;;;;;;0.10;0.10;;;;;;;7.42;70.29;103736.47;5026102;28;20108;-82
2022/01/14 09:53:29;;;;;;;0.85;0.85;;;;;;;7.49;70.44;103728.78;5028644;28;20030;-81
2022/01/14 09:55:56;;;;;;;0.17;0.17;;;;;;;7.56;70.43;103742.31;5030137;28;20068;-81
2022/01/14 09:58:24;;;;;;;0.68;0.68;;;;;;;7.58;70.15;103723.91;5026127;28;20542;-81
2022/01/14 10:00:50;;;;;;;0.10;0.10;;;;;;;7.65;70.48;103735.56;5032070;28;20075;-81
2022/01/14 10:03:20;;;;;;;0.10;0.10;;;;;;;7.68;69.91;103735.72;5033182;28;20029;-81
2022/01/14 10:05:51;;;;;;;0.10;0.10;;;;;;;7.72;70.32;103732.34;5028468;28;20128;-82
2022/01/14 10:08:22;;;;;;;0.10;0.10;;;;;;;7.77;69.65;103736.06;5032527;28;20560;-82
2022/01/14 10:10:55;;;;;;;0.40;0.40;;;;;;;7.78;69.63;103733.47;5020569;28;20034;-82
2022/01/14 10:13:26;;;;;;;0.20;0.20;;;;;;;7.84;69.52;103737.16;5027654;28;20055;-82
2022/01/14 10:18:49;;;;;;;0.20;0.20;;;;;;;7.99;69.27;103735.13;5081943;27;20418;-81
2022/01/14 10:21:15;;;;;;;0.57;0.57;;;;;;;8.00;69.68;103743.94;5046969;28;20079;-81
2022/01/14 10:23:48;;;;;;;0.10;0.10;;;;;;;8.10;69.39;103746.97;5037739;28;20080;-80
2022/01/14 10:26:16;;;;;;;0.40;0.40;;;;;;;8.10;69.95;103739.06;5037842;28;21654;-81
2022/01/14 10:28:45;;;;;;;0.50;0.50;;;;;;;8.14;69.18;103741.78;5034735;28;20123;-82
2022/01/14 10:31:12;;;;;;;0.73;0.73;;;;;;;8.19;69.50;103741.13;5042371;28;20025;-82
2022/01/14 10:33:38;;;;;;;0.20;0.20;;;;;;;8.22;69.10;103735.97;5042796;28;20026;-82
2022/01/14 10:36:06;;;;;;;1.08;0.90;;;;;;;8.27;69.17;103736.13;5040072;28;20388;-82
2022/01/14 10:38:46;;;;;;;1.08;1.08;;;;;;;8.37;68.96;103730.34;5044275;28;20065;-82
2022/01/14 10:41:12;;;;;;;0.73;0.73;;;;;;;8.37;69.14;103735.63;5033389;28;20120;-81
2022/01/14 10:43:38;;;;;;;0.15;0.15;;;;;;;8.41;69.35;103740.19;5038802;28;20370;-81
2022/01/14 10:46:12;;;;;;;0.20;0.20;;;;;;;8.52;69.57;103751.16;5043471;28;20048;-81
2022/01/14 10:48:41;;;;;;;1.48;1.40;;;;;;;8.49;69.64;103742.22;5041437;28;20025;-80
2022/01/14 10:51:10;;;;;;;0.20;0.20;;;;;;;8.52;69.36;103744.97;5039470;28;20022;-81
2022/01/14 10:53:41;;;;;;;0.10;0.10;;;;;;;8.61;69.60;103750.59;5043657;28;20111;-82
2022/01/14 10:56:10;;;;;;;0.45;0.45;;;;;;;8.66;69.47;103742.81;5055685;28;20025;-81
2022/01/14 10:58:39;;;;;;;1.67;1.17;;;;;;;8.67;69.22;103741.97;5038478;28;20049;-82
2022/01/14 11:01:11;;;;;;;0.22;0.22;;;;;;;8.76;69.04;103736.09;5043852;28;20029;-81
2022/01/14 11:09:07;;;;;;;0.30;0.30;;;;;;;8.91;69.37;103723.41;5059627;27;20394;-81
2022/01/14 11:11:37;;;;;;;0.15;0.15;;;;;;;8.94;69.21;103727.91;5057336;27;20443;-81
2022/01/14 11:14:04;;;;;;;0.88;0.88;;;;;;;8.95;68.89;103722.66;5058288;28;20471;-81
2022/01/14 11:16:31;;;;;;;0.30;0.30;;;;;;;9.02;69.18;103721.09;5076153;27;20040;-79
2022/01/14 11:19:00;;;;;;;0.20;0.20;;;;;;;9.03;68.38;103713.22;5059430;28;20031;-81
2022/01/14 11:24:15;;;;;;;0.10;0.10;;;;;;;9.13;68.72;103724.97;5057647;28;20448;-81
2022/01/14 11:26:43;;;;;;;1.60;1.50;;;;;;;9.17;68.65;103715.41;5061672;28;20112;-82
2022/01/14 11:29:15;;;;;;;0.13;0.13;;;;;;;9.20;68.21;103710.22;5058347;28;20103;-81
2022/01/14 11:31:42;;;;;;;0.17;0.17;;;;;;;9.24;68.57;103706.81;5054363;27;20034;-80
2022/01/14 11:34:29;;;;;;;0.20;0.20;;;;;;;9.19;67.97;103714.59;5057373;28;20025;-81
2022/01/14 11:37:01;;;;;;;0.10;0.10;;;;;;;9.25;68.34;103713.91;5059813;28;20502;-82
2022/01/14 11:39:31;;;;;;;0.20;0.20;;;;;;;9.31;68.56;103711.47;5059365;28;20051;-81
2022/01/14 11:42:03;;;;;;;2.78;1.08;;;;;;;9.36;68.77;103708.97;5056810;27;20169;-80
2022/01/14 11:44:54;;;;;;;0.40;0.40;;;;;;;9.47;68.66;103710.19;5054076;28;20033;-81
2022/01/14 11:53:26;;;;;;;0.20;0.20;;;;;;;9.40;68.06;103692.31;5114928;27;20404;-82
2022/01/14 11:55:52;;;;;;;0.10;0.10;;;;;;;9.44;68.39;103703.91;5082672;28;20062;-81
2022/01/14 11:58:22;;;;;;;0.35;0.35;;;;;;;9.51;68.82;103706.78;5075417;28;20033;-82
2022/01/14 12:00:48;;;;;;;0.38;0.38;;;;;;;9.52;67.97;103702.38;5075520;28;20028;-82
2022/01/14 12:05:58;;;;;;;0.10;0.10;;;;;;;9.65;68.74;103693.94;5079156;27;20438;-81
2022/01/14 12:08:26;;;;;;;0.17;0.17;;;;;;;9.70;68.46;103689.69;5063142;28;20037;-81
2022/01/14 12:10:57;;;;;;;0.75;0.28;;;;;;;9.78;68.53;103689.03;5045025;28;20699;-81
2022/01/14 12:24:31;;;;;;;0.20;0.20;;;;;;;9.94;67.65;103696.53;5065631;27;20439;-82
2022/01/14 12:29:43;;;;;;;1.42;0.95;;;;;;;10.02;67.57;103691.50;5062312;27;20419;-80
2022/01/14 12:32:13;;;;;;;0.10;0.10;;;;;;;10.06;67.81;103695.13;5045769;28;20060;-82
2022/01/14 12:34:57;;;;;;;0.10;0.10;;;;;;;10.08;67.65;103696.03;5040423;28;20037;-82